createdAt,value
2023-12-15T09:48:17.742Z,2.28
2023-12-15T10:06:01.719Z,3.57
2023-12-15T10:10:14.380Z,3.78
2023-12-15T10:12:45.218Z,3.86
2023-12-15T10:13:43.893Z,3.89
2023-12-15T10:14:43.134Z,3.96
2023-12-15T10:17:06.623Z,4.14
2023-12-15T10:18:07.790Z,4.16
2023-12-15T10:19:07.735Z,4.22
2023-12-15T10:20:07.885Z,4.26
2023-12-15T10:21:07.900Z,4.33
2023-12-15T10:22:07.897Z,4.40
2023-12-15T10:23:08.202Z,4.44
2023-12-15T11:09:05.568Z,4.21
2023-12-15T11:10:06.612Z,4.24
2023-12-15T11:11:06.777Z,4.29
2023-12-15T11:12:06.837Z,4.37
2023-12-15T11:13:06.711Z,4.43
2023-12-15T11:14:06.836Z,4.52
2023-12-15T11:15:06.896Z,4.59
2023-12-15T11:16:07.014Z,4.67
2023-12-15T11:17:07.115Z,4.73
2023-12-15T11:18:07.390Z,4.79
2023-12-15T11:19:07.359Z,4.86
2023-12-15T11:20:07.717Z,4.91
2023-12-15T11:21:07.452Z,4.95
2023-12-15T11:22:07.505Z,4.99
2023-12-15T11:23:07.626Z,5.02
2023-12-15T11:24:07.660Z,5.09
2023-12-15T11:25:07.777Z,5.12
2023-12-15T11:26:07.913Z,5.13
2023-12-15T11:27:07.945Z,5.16
2023-12-15T11:28:08.028Z,5.19
2023-12-15T11:29:08.167Z,5.23
2023-12-15T11:30:08.240Z,5.28
2023-12-15T11:31:08.309Z,5.27
2023-12-15T11:32:08.377Z,5.30
2023-12-15T11:33:08.556Z,5.32
2023-12-15T11:34:08.593Z,5.31
2023-12-15T11:35:08.642Z,5.34
2023-12-15T11:36:08.757Z,5.38
2023-12-15T11:37:08.791Z,5.40
2023-12-15T11:38:08.912Z,5.43
2023-12-15T11:39:08.966Z,5.46
2023-12-15T11:40:09.056Z,5.49
2023-12-15T11:41:09.309Z,5.50
2023-12-15T11:42:09.203Z,5.53
2023-12-15T11:43:09.300Z,5.55
2023-12-15T11:44:09.445Z,5.56
2023-12-15T11:45:09.501Z,5.56
2023-12-15T11:46:09.601Z,5.59
2023-12-15T11:47:09.671Z,5.60
2023-12-15T11:48:09.868Z,5.60
2023-12-15T11:49:10.020Z,5.64
2023-12-15T11:50:09.948Z,5.63
2023-12-15T11:51:10.046Z,5.64
2023-12-15T11:52:10.066Z,5.68
2023-12-15T11:53:10.178Z,5.68
2023-12-15T11:54:10.221Z,5.71
2023-12-15T11:55:10.340Z,5.71
2023-12-15T11:56:10.494Z,5.73
2023-12-15T11:57:10.481Z,5.75
2023-12-15T11:58:10.562Z,5.75
2023-12-15T11:59:10.667Z,5.78
2023-12-15T12:00:10.752Z,5.81
2023-12-15T12:01:10.868Z,5.82
2023-12-15T12:02:10.909Z,5.83
2023-12-15T12:03:11.003Z,5.83
2023-12-15T12:04:11.205Z,5.85
2023-12-15T12:05:11.198Z,5.85
2023-12-15T12:06:11.277Z,5.86
2023-12-15T12:07:11.351Z,5.89
2023-12-15T12:08:11.721Z,5.91
2023-12-15T12:09:11.484Z,5.91
2023-12-15T12:10:11.573Z,5.92
2023-12-15T12:11:11.739Z,5.93
2023-12-15T12:12:11.755Z,5.93
2023-12-15T12:13:11.906Z,5.95
2023-12-15T12:14:12.025Z,5.95
2023-12-15T12:15:12.035Z,5.96
2023-12-15T12:16:12.168Z,6.00
2023-12-15T12:17:12.290Z,5.96
2023-12-15T12:18:12.325Z,5.98
2023-12-15T12:19:12.378Z,6.00
2023-12-15T12:20:12.566Z,5.98
2023-12-15T12:21:12.588Z,5.98
2023-12-15T12:22:12.663Z,6.00
2023-12-15T12:23:12.800Z,6.00
2023-12-15T12:24:12.848Z,6.01
2023-12-15T12:25:12.903Z,6.03
2023-12-15T12:26:13.444Z,6.01
2023-12-15T12:27:13.087Z,6.03
2023-12-15T12:28:13.114Z,6.03
2023-12-15T12:29:13.218Z,6.04
2023-12-15T12:30:13.496Z,6.04
2023-12-15T12:31:13.387Z,6.04
2023-12-15T12:32:13.467Z,6.06
2023-12-15T12:33:13.872Z,6.06
2023-12-15T12:34:13.753Z,6.06
2023-12-15T12:35:13.723Z,6.07
2023-12-15T12:36:13.792Z,6.07
2023-12-15T12:37:13.855Z,6.09
2023-12-15T12:38:13.966Z,6.09
2023-12-15T12:39:14.102Z,6.10
2023-12-15T12:40:14.136Z,6.09
2023-12-15T12:41:14.381Z,6.10
2023-12-15T12:42:16.239Z,6.10
2023-12-15T12:43:14.430Z,6.10
2023-12-15T12:44:14.490Z,6.11
2023-12-15T12:45:14.574Z,6.11
2023-12-15T12:46:15.081Z,6.13
2023-12-15T12:47:14.783Z,6.13
2023-12-15T12:48:14.958Z,6.13
2023-12-15T12:49:15.014Z,6.13
2023-12-15T12:50:15.108Z,6.13
2023-12-15T12:51:15.128Z,6.13
2023-12-15T12:52:15.204Z,6.11
2023-12-15T12:53:15.281Z,6.11
2023-12-15T12:54:15.310Z,6.10
2023-12-15T12:55:15.403Z,6.11
2023-12-15T12:56:15.556Z,6.11
2023-12-15T12:57:15.601Z,6.10
2023-12-15T12:58:15.678Z,6.10
2023-12-15T12:59:15.799Z,6.11
2023-12-15T13:00:15.874Z,6.11
2023-12-15T13:01:16.016Z,6.11
2023-12-15T13:02:20.901Z,6.11
2023-12-15T13:03:16.163Z,6.10
2023-12-15T13:04:16.230Z,6.11
2023-12-15T13:05:16.350Z,6.10
2023-12-15T13:06:16.442Z,6.10
2023-12-15T13:07:16.469Z,6.11
2023-12-15T13:08:16.562Z,6.10
2023-12-15T13:09:16.739Z,6.10
2023-12-15T13:10:18.492Z,6.10
2023-12-15T13:11:16.794Z,6.10
2023-12-15T13:12:16.808Z,6.11
2023-12-15T13:13:16.925Z,6.11
2023-12-15T13:14:16.965Z,6.13
2023-12-15T13:15:17.069Z,6.13
2023-12-15T13:16:17.191Z,6.13
2023-12-15T13:17:17.497Z,6.13
2023-12-15T13:18:17.481Z,6.13
2023-12-15T13:19:17.428Z,6.14
2023-12-15T13:20:17.536Z,6.13
2023-12-15T13:21:17.628Z,6.13
2023-12-15T13:22:17.698Z,6.13
2023-12-15T13:23:17.787Z,6.13
2023-12-15T13:24:17.825Z,6.13
2023-12-15T13:25:18.013Z,6.13
2023-12-15T13:26:18.049Z,6.11
2023-12-15T13:27:18.053Z,6.13
2023-12-15T13:28:18.195Z,6.11
2023-12-15T13:29:18.301Z,6.13
2023-12-15T13:30:18.462Z,6.14
2023-12-15T13:31:18.473Z,6.13
2023-12-15T13:32:18.551Z,6.13
2023-12-15T13:33:18.722Z,6.11
2023-12-15T13:34:20.974Z,6.13
2023-12-15T13:35:18.885Z,6.13
2023-12-15T13:36:19.053Z,6.13
2023-12-15T13:37:18.914Z,6.13
2023-12-15T13:38:19.031Z,6.13
2023-12-15T13:39:19.108Z,6.13
2023-12-15T13:40:19.303Z,6.13
2023-12-15T13:41:19.347Z,6.13
2023-12-15T13:42:19.518Z,6.11
2023-12-15T13:43:19.472Z,6.11
2023-12-15T13:44:19.558Z,6.13
2023-12-15T13:45:19.630Z,6.13
2023-12-15T13:46:19.737Z,6.13
2023-12-15T13:47:19.783Z,6.13
2023-12-15T13:48:19.947Z,6.13
2023-12-15T13:49:20.012Z,6.14
2023-12-15T13:50:20.039Z,6.13
2023-12-15T13:51:20.101Z,6.14
2023-12-15T13:52:20.183Z,6.16
2023-12-15T13:53:20.234Z,6.14
2023-12-15T13:54:20.335Z,6.14
2023-12-15T13:55:20.409Z,6.14
2023-12-15T13:56:20.537Z,6.14
2023-12-15T13:57:20.582Z,6.14
2023-12-15T13:58:20.672Z,6.14
2023-12-15T13:59:20.764Z,6.14
2023-12-15T14:00:20.811Z,6.14
2023-12-15T14:01:20.998Z,6.14
2023-12-15T14:02:21.040Z,6.13
2023-12-15T14:03:21.096Z,6.14
2023-12-15T14:04:21.200Z,6.14
2023-12-15T14:05:21.267Z,6.18
2023-12-15T14:06:21.482Z,6.14
2023-12-15T14:07:21.405Z,6.16
2023-12-15T14:08:21.502Z,6.16
2023-12-15T14:09:21.587Z,6.16
2023-12-15T14:10:21.640Z,6.16
2023-12-15T14:11:21.762Z,6.14
2023-12-15T14:12:21.802Z,6.14
2023-12-15T14:13:21.950Z,6.13
2023-12-15T14:14:21.985Z,6.14
2023-12-15T14:15:22.065Z,6.14
2023-12-15T14:16:30.905Z,6.14
2023-12-15T14:17:22.204Z,6.14
2023-12-15T14:18:22.398Z,6.16
2023-12-15T14:19:22.438Z,6.14
2023-12-15T14:20:22.513Z,6.14
2023-12-15T14:21:22.554Z,6.16
2023-12-15T14:22:22.592Z,6.18
2023-12-15T14:23:22.708Z,6.16
2023-12-15T14:24:22.778Z,6.16
2023-12-15T14:25:22.827Z,6.18
2023-12-15T14:26:23.007Z,6.19
2023-12-15T14:27:23.009Z,6.19
2023-12-15T14:28:23.117Z,6.19
2023-12-15T14:29:23.217Z,6.21
2023-12-15T14:30:23.302Z,6.19
2023-12-15T14:31:23.438Z,6.21
2023-12-15T14:32:23.481Z,6.21
2023-12-15T14:33:23.654Z,6.22
2023-12-15T14:34:23.683Z,6.21
2023-12-15T14:35:23.720Z,6.22
2023-12-15T14:36:23.848Z,6.22
2023-12-15T14:37:23.893Z,6.21
2023-12-15T14:38:24.017Z,6.22
2023-12-15T14:39:24.027Z,6.21
2023-12-15T14:40:24.132Z,6.22
2023-12-15T14:41:24.338Z,6.22
2023-12-15T14:42:24.337Z,6.22
2023-12-15T14:43:24.373Z,6.25
2023-12-15T14:44:24.573Z,6.25
2023-12-15T14:45:27.547Z,6.25
2023-12-15T14:46:24.650Z,6.22
2023-12-15T14:47:24.717Z,6.22
2023-12-15T14:48:24.866Z,6.25
2023-12-15T14:49:24.943Z,6.21
2023-12-15T14:50:24.954Z,6.21
2023-12-15T14:51:25.033Z,6.19
2023-12-15T14:52:28.251Z,6.19
2023-12-15T14:53:25.232Z,6.18
2023-12-15T14:54:25.310Z,6.19
2023-12-15T14:55:25.411Z,6.18
2023-12-15T14:56:25.564Z,6.19
2023-12-15T14:57:25.592Z,6.19
2023-12-15T14:58:25.637Z,6.19
2023-12-15T14:59:25.774Z,6.19
2023-12-15T15:00:25.837Z,6.19
2023-12-15T15:01:25.993Z,6.21
2023-12-15T15:02:26.069Z,6.19
2023-12-15T15:03:26.096Z,6.19
2023-12-15T15:04:26.133Z,6.21
2023-12-15T15:05:26.327Z,6.21
2023-12-15T15:06:29.959Z,6.19
2023-12-15T15:07:26.413Z,6.18
2023-12-15T15:08:26.518Z,6.16
2023-12-15T15:09:26.602Z,6.16
2023-12-15T15:10:26.656Z,6.16
2023-12-15T15:11:26.777Z,6.16
2023-12-15T15:12:26.823Z,6.16
2023-12-15T15:13:26.901Z,6.16
2023-12-15T15:14:27.008Z,6.16
2023-12-15T15:15:27.087Z,6.16
2023-12-15T15:16:27.228Z,6.14
2023-12-15T15:17:27.335Z,6.14
2023-12-15T15:18:27.477Z,6.16
2023-12-15T15:19:27.610Z,6.14
2023-12-15T15:20:27.621Z,6.13
2023-12-15T15:21:27.649Z,6.14
2023-12-15T15:22:27.697Z,6.13
2023-12-15T15:23:27.824Z,6.14
2023-12-15T15:24:27.903Z,6.13
2023-12-15T15:25:28.008Z,6.14
2023-12-15T15:26:28.173Z,6.14
2023-12-15T15:27:28.155Z,6.13
2023-12-15T15:28:28.254Z,6.13
2023-12-15T15:29:28.395Z,6.14
2023-12-15T15:30:28.464Z,6.11
2023-12-15T15:31:28.534Z,6.13
2023-12-15T15:32:28.640Z,6.13
2023-12-15T15:33:28.714Z,6.13
2023-12-15T15:34:28.764Z,6.13
2023-12-15T15:35:30.630Z,6.13
2023-12-15T15:36:28.932Z,6.13
2023-12-15T15:37:28.966Z,6.13
2023-12-15T15:38:29.056Z,6.11
2023-12-15T15:39:29.141Z,6.13
2023-12-15T15:40:29.228Z,6.11
2023-12-15T15:41:29.311Z,6.13
2023-12-15T15:42:29.372Z,6.13
2023-12-15T15:43:29.445Z,6.10
2023-12-15T15:44:29.543Z,6.10
2023-12-15T15:45:29.609Z,6.07
2023-12-15T15:46:29.759Z,6.06
2023-12-15T15:47:30.701Z,6.07
2023-12-15T15:48:29.879Z,6.07
2023-12-15T15:49:29.902Z,6.07
2023-12-15T15:50:29.987Z,6.06
2023-12-15T15:51:30.105Z,6.04
2023-12-15T15:52:30.174Z,6.06
2023-12-15T15:53:30.299Z,6.07
2023-12-15T15:54:30.328Z,6.07
2023-12-15T15:55:30.408Z,6.06
2023-12-15T15:56:30.520Z,6.06
2023-12-15T15:57:30.568Z,6.07
2023-12-15T15:58:30.666Z,6.07
2023-12-15T15:59:30.748Z,6.07
2023-12-15T16:00:30.841Z,6.07
2023-12-15T16:01:36.216Z,6.06
2023-12-15T16:02:31.134Z,6.01
2023-12-15T16:03:31.204Z,6.01
2023-12-15T16:04:31.273Z,6.03
2023-12-15T16:05:31.306Z,6.03
2023-12-15T16:06:31.463Z,6.03
2023-12-15T16:07:31.486Z,6.03
2023-12-15T16:08:31.579Z,6.03
2023-12-15T16:09:31.698Z,6.03
2023-12-15T16:10:44.248Z,6.01
2023-12-15T16:11:31.891Z,6.03
2023-12-15T16:12:31.943Z,6.01
2023-12-15T16:13:32.022Z,6.01
2023-12-15T16:14:32.108Z,6.01
2023-12-15T16:15:32.176Z,6.01
2023-12-15T16:16:32.304Z,6.03
2023-12-15T16:17:32.422Z,6.01
2023-12-15T16:18:32.468Z,6.01
2023-12-15T16:19:32.644Z,6.03
2023-12-15T16:20:32.621Z,6.03
2023-12-15T16:21:32.731Z,6.03
2023-12-15T16:22:32.791Z,6.03
2023-12-15T16:23:32.886Z,6.03
2023-12-15T16:24:32.972Z,6.04
2023-12-15T16:25:33.040Z,6.04
2023-12-15T16:26:33.155Z,6.03
2023-12-15T16:27:33.186Z,6.04
2023-12-15T16:28:33.277Z,6.01
2023-12-15T16:29:33.308Z,6.01
2023-12-15T16:30:33.419Z,6.01
2023-12-15T16:31:33.556Z,6.01
2023-12-15T16:32:33.610Z,6.00
2023-12-15T16:33:33.714Z,5.98
2023-12-15T16:34:33.790Z,5.96
2023-12-15T16:35:33.824Z,5.95
2023-12-15T16:36:33.941Z,5.93
2023-12-15T16:37:33.988Z,5.93
2023-12-15T16:38:34.070Z,5.92
2023-12-15T16:39:34.158Z,5.93
2023-12-15T16:40:34.274Z,5.93
2023-12-15T16:41:34.354Z,5.92
2023-12-15T16:42:34.555Z,5.93
2023-12-15T16:43:34.489Z,5.92
2023-12-15T16:44:34.576Z,5.92
2023-12-15T16:45:34.743Z,5.92
2023-12-15T16:46:34.752Z,5.91
2023-12-15T16:47:34.816Z,5.89
2023-12-15T16:48:34.979Z,5.91
2023-12-15T16:49:35.022Z,5.92
2023-12-15T16:50:35.041Z,5.92
2023-12-15T16:51:35.196Z,5.91
2023-12-15T16:52:35.221Z,5.92
2023-12-15T16:53:35.314Z,5.91
2023-12-15T16:54:35.404Z,5.89
2023-12-15T16:55:35.492Z,5.88
2023-12-15T16:56:35.592Z,5.89
2023-12-15T16:57:35.875Z,5.89
2023-12-15T16:58:35.719Z,5.91
2023-12-15T16:59:35.793Z,5.89
2023-12-15T17:00:35.971Z,5.89
2023-12-15T17:01:36.119Z,5.91
2023-12-15T17:02:36.128Z,5.89
2023-12-15T17:03:36.181Z,5.88
2023-12-15T17:04:36.322Z,5.86
2023-12-15T17:05:37.637Z,5.86
2023-12-15T17:06:36.527Z,5.86
2023-12-15T17:07:36.526Z,5.85
2023-12-15T17:08:36.608Z,5.83
2023-12-15T17:09:36.746Z,5.85
2023-12-15T17:10:36.802Z,5.83
2023-12-15T17:11:36.903Z,5.82
2023-12-15T17:12:36.962Z,5.81
2023-12-15T17:13:37.019Z,5.78
2023-12-15T17:14:37.121Z,5.81
2023-12-15T17:15:37.205Z,5.81
2023-12-15T17:16:37.335Z,5.81
2023-12-15T17:17:37.562Z,5.81
2023-12-15T17:18:37.613Z,5.82
2023-12-15T17:19:37.674Z,5.81
2023-12-15T17:20:46.958Z,5.81
2023-12-15T17:21:37.934Z,5.81
2023-12-15T17:22:38.088Z,5.77
2023-12-15T17:23:37.927Z,5.74
2023-12-15T17:24:37.986Z,5.73
2023-12-15T17:25:38.002Z,5.71
2023-12-15T17:26:38.102Z,5.70
2023-12-15T17:27:38.233Z,5.71
2023-12-15T17:28:38.227Z,5.71
2023-12-15T17:29:46.490Z,5.71
2023-12-15T17:30:38.447Z,5.70
2023-12-15T17:31:38.570Z,5.68
2023-12-15T17:32:38.637Z,5.68
2023-12-15T17:33:38.861Z,5.70
2023-12-15T17:34:38.860Z,5.68
2023-12-15T17:35:38.888Z,5.67
2023-12-15T17:36:39.065Z,5.67
2023-12-15T17:37:39.256Z,5.68
2023-12-15T17:38:39.152Z,5.67
2023-12-15T17:39:39.275Z,5.66
2023-12-15T17:40:39.327Z,5.67
2023-12-15T17:41:39.463Z,5.67
2023-12-15T17:42:39.581Z,5.66
2023-12-15T17:43:39.618Z,5.66
2023-12-15T17:44:39.666Z,5.63
2023-12-15T17:45:39.765Z,5.63
2023-12-15T17:46:39.856Z,5.63
2023-12-15T17:47:40.336Z,5.60
2023-12-15T17:48:40.096Z,5.59
2023-12-15T17:49:40.123Z,5.57
2023-12-15T17:50:40.135Z,5.56
2023-12-15T17:51:40.328Z,5.56
2023-12-15T17:52:40.339Z,5.55
2023-12-15T17:53:40.438Z,5.53
2023-12-15T17:54:40.532Z,5.52
2023-12-15T17:55:40.597Z,5.50
2023-12-15T17:56:40.748Z,5.52
2023-12-15T17:57:41.148Z,5.52
2023-12-15T17:58:40.817Z,5.52
2023-12-15T17:59:40.905Z,5.48
2023-12-15T18:00:41.056Z,5.50
2023-12-15T18:01:41.196Z,5.52
2023-12-15T18:02:41.148Z,5.50
2023-12-15T18:03:41.377Z,5.49
2023-12-15T18:04:41.449Z,5.52
2023-12-15T18:05:41.489Z,5.52
2023-12-15T18:06:41.488Z,5.52
2023-12-15T18:07:41.572Z,5.53
2023-12-15T18:08:43.340Z,5.53
2023-12-15T18:09:41.816Z,5.53
2023-12-15T18:10:41.853Z,5.50
2023-12-15T18:11:41.909Z,5.50
2023-12-15T18:12:41.988Z,5.49
2023-12-15T18:13:42.039Z,5.49
2023-12-15T18:14:42.145Z,5.48
2023-12-15T18:15:42.203Z,5.49
2023-12-15T18:16:42.305Z,5.49
2023-12-15T18:17:42.973Z,5.49
2023-12-15T18:18:42.596Z,5.48
2023-12-15T18:19:42.635Z,5.49
2023-12-15T18:20:43.397Z,5.50
2023-12-15T18:21:42.971Z,5.52
2023-12-15T18:22:42.858Z,5.50
2023-12-15T18:23:42.882Z,5.50
2023-12-15T18:24:43.103Z,5.52
2023-12-15T18:25:43.025Z,5.53
2023-12-15T18:26:46.306Z,5.52
2023-12-15T18:27:43.616Z,5.52
2023-12-15T18:30:30.744Z,5.40
2023-12-15T18:31:30.631Z,5.34
2023-12-15T18:32:30.353Z,5.31
2023-12-15T18:33:31.516Z,5.31
2023-12-15T18:34:44.316Z,5.31
2023-12-15T18:35:30.590Z,5.27
2023-12-15T18:36:30.741Z,5.27
2023-12-15T18:37:30.601Z,5.25
2023-12-15T18:38:30.699Z,5.27
2023-12-15T18:39:30.770Z,5.30
2023-12-15T18:40:30.944Z,5.30
2023-12-15T18:41:31.176Z,5.30
2023-12-15T18:42:31.153Z,5.31
2023-12-15T18:43:31.038Z,5.31
2023-12-15T18:44:31.167Z,5.32
2023-12-15T18:45:31.237Z,5.34
2023-12-15T18:46:31.398Z,5.35
2023-12-15T18:47:31.544Z,5.34
2023-12-15T18:48:31.543Z,5.34
2023-12-15T18:49:31.682Z,5.32
2023-12-15T18:50:31.729Z,5.34
2023-12-15T18:51:31.743Z,5.32
2023-12-15T18:52:31.793Z,5.32
2023-12-15T18:53:31.942Z,5.34
2023-12-15T18:54:32.002Z,5.34
2023-12-15T18:55:31.984Z,5.34
2023-12-15T18:56:42.526Z,5.35
2023-12-15T18:57:34.837Z,5.37
2023-12-15T18:58:32.307Z,5.37
2023-12-15T18:59:32.296Z,5.38
2023-12-15T19:00:32.357Z,5.38
2023-12-15T19:01:32.599Z,5.38
2023-12-15T19:02:32.537Z,5.40
2023-12-15T19:03:32.675Z,5.38
2023-12-15T19:04:32.761Z,5.38
2023-12-15T19:05:32.855Z,5.38
2023-12-15T19:06:32.897Z,5.38
2023-12-15T19:07:33.037Z,5.38
2023-12-15T19:08:33.013Z,5.38
2023-12-15T19:09:33.118Z,5.38
2023-12-15T19:10:33.182Z,5.41
2023-12-15T19:11:33.306Z,5.41
2023-12-15T19:12:33.363Z,5.41
2023-12-15T19:13:33.526Z,5.43
2023-12-15T19:14:33.496Z,5.45
2023-12-15T19:15:33.579Z,5.45
2023-12-15T19:16:33.706Z,5.45
2023-12-15T19:17:33.805Z,5.45
2023-12-15T19:18:33.913Z,5.48
2023-12-15T19:19:34.092Z,5.46
2023-12-15T19:20:33.997Z,5.46
2023-12-15T19:21:34.121Z,5.46
2023-12-15T19:22:34.187Z,5.46
2023-12-15T19:23:34.295Z,5.46
2023-12-15T19:24:34.338Z,5.48
2023-12-15T19:25:34.458Z,5.46
2023-12-15T19:26:34.525Z,5.46
2023-12-15T19:27:34.718Z,5.46
2023-12-15T19:28:34.707Z,5.48
2023-12-15T19:29:34.807Z,5.46
2023-12-15T19:30:34.949Z,5.46
2023-12-15T19:31:35.009Z,5.48
2023-12-15T19:32:36.701Z,5.46
2023-12-15T19:33:36.123Z,5.46
2023-12-15T19:34:35.316Z,5.46
2023-12-15T19:35:35.336Z,5.45
2023-12-15T19:36:35.383Z,5.43
2023-12-15T19:37:35.586Z,5.41
2023-12-15T19:38:35.503Z,5.41
2023-12-15T19:39:35.587Z,5.41
2023-12-15T19:40:35.692Z,5.43
2023-12-15T19:41:35.833Z,5.41
2023-12-15T19:42:36.991Z,5.43
2023-12-15T19:43:35.970Z,5.43
2023-12-15T19:44:36.049Z,5.46
2023-12-15T19:45:36.146Z,5.46
2023-12-15T19:46:36.233Z,5.46
2023-12-15T19:47:36.597Z,5.48
2023-12-15T19:48:36.437Z,5.48
2023-12-15T19:49:36.552Z,5.49
2023-12-15T19:50:36.564Z,5.49
2023-12-15T19:51:36.675Z,5.49
2023-12-15T19:52:36.741Z,5.49
2023-12-15T19:53:37.667Z,5.50
2023-12-15T19:54:36.882Z,5.50
2023-12-15T19:55:36.973Z,5.50
2023-12-15T19:56:37.109Z,5.52
2023-12-15T19:57:37.480Z,5.53
2023-12-15T19:58:37.239Z,5.55
2023-12-15T19:59:38.141Z,5.53
2023-12-15T20:00:37.468Z,5.55
2023-12-15T20:01:37.662Z,5.55
2023-12-15T20:02:37.566Z,5.55
2023-12-15T20:03:37.764Z,5.56
2023-12-15T20:04:38.005Z,5.56
2023-12-15T20:05:37.798Z,5.55
2023-12-15T20:06:37.984Z,5.53
2023-12-15T20:07:38.373Z,5.53
2023-12-15T20:08:38.071Z,5.53
2023-12-15T20:09:38.656Z,5.52
2023-12-15T20:10:38.218Z,5.53
2023-12-15T20:11:38.696Z,5.52
2023-12-15T20:12:38.465Z,5.50
2023-12-15T20:13:38.479Z,5.52
2023-12-15T20:14:38.549Z,5.50
2023-12-15T20:15:38.687Z,5.50
2023-12-15T20:16:38.764Z,5.50
2023-12-15T20:17:39.126Z,5.48
2023-12-15T20:18:38.940Z,5.49
2023-12-15T20:19:39.055Z,5.49
2023-12-15T20:20:39.029Z,5.49
2023-12-15T20:21:39.283Z,5.50
2023-12-15T20:22:39.249Z,5.50
2023-12-15T20:23:39.329Z,5.50
2023-12-15T20:24:39.435Z,5.50
2023-12-15T20:25:39.524Z,5.49
2023-12-15T20:26:39.639Z,5.50
2023-12-15T20:27:43.555Z,5.50
2023-12-15T20:28:39.750Z,5.52
2023-12-15T20:29:39.830Z,5.49
2023-12-15T20:30:39.993Z,5.50
2023-12-15T20:31:40.090Z,5.49
2023-12-15T20:32:40.311Z,5.50
2023-12-15T20:33:40.308Z,5.49
2023-12-15T20:34:40.404Z,5.50
2023-12-15T20:35:40.352Z,5.50
2023-12-15T20:36:40.509Z,5.49
2023-12-15T20:37:40.796Z,5.50
2023-12-15T20:38:40.606Z,5.52
2023-12-15T20:39:40.759Z,5.50
2023-12-15T20:40:40.781Z,5.50
2023-12-15T20:41:40.895Z,5.49
2023-12-15T20:42:40.985Z,5.50
2023-12-15T20:43:41.024Z,5.49
2023-12-15T20:44:41.119Z,5.49
2023-12-15T20:45:41.240Z,5.48
2023-12-15T20:46:41.328Z,5.48
2023-12-15T20:47:41.840Z,5.50
2023-12-15T20:48:41.637Z,5.48
2023-12-15T20:49:41.629Z,5.49
2023-12-15T20:50:41.651Z,5.48
2023-12-15T20:51:41.951Z,5.49
2023-12-15T20:52:41.899Z,5.49
2023-12-15T20:53:41.933Z,5.49
2023-12-15T20:54:42.016Z,5.45
2023-12-15T20:55:42.092Z,5.45
2023-12-15T20:56:42.212Z,5.45
2023-12-15T20:57:42.336Z,5.43
2023-12-15T20:58:42.340Z,5.41
2023-12-15T20:59:42.655Z,5.40
2023-12-15T21:00:42.755Z,5.41
2023-12-15T21:01:42.714Z,5.41
2023-12-15T21:02:42.665Z,5.38
2023-12-15T21:03:42.880Z,5.37
2023-12-15T21:04:42.916Z,5.37
2023-12-15T21:05:43.106Z,5.35
2023-12-15T21:06:43.100Z,5.37
2023-12-15T21:07:43.161Z,5.35
2023-12-15T21:08:43.270Z,5.35
2023-12-15T21:09:43.403Z,5.34
2023-12-15T21:10:43.414Z,5.34
2023-12-15T21:11:43.534Z,5.30
2023-12-15T21:12:43.661Z,5.28
2023-12-15T21:13:43.673Z,5.28
2023-12-15T21:14:43.765Z,5.25
2023-12-15T21:15:43.917Z,5.25
2023-12-15T21:16:43.970Z,5.23
2023-12-15T21:17:44.264Z,5.23
2023-12-15T21:18:44.179Z,5.23
2023-12-15T21:19:44.210Z,5.20
2023-12-15T21:20:44.293Z,5.20
2023-12-15T21:21:44.418Z,5.19
2023-12-15T21:22:45.038Z,5.19
2023-12-15T21:23:44.521Z,5.17
2023-12-15T21:24:44.635Z,5.17
2023-12-15T21:25:44.679Z,5.14
2023-12-15T21:26:44.814Z,5.13
2023-12-15T21:27:44.900Z,5.13
2023-12-15T21:28:44.957Z,5.13
2023-12-15T21:29:45.022Z,5.12
2023-12-15T21:30:45.169Z,5.12
2023-12-15T21:31:45.262Z,5.14
2023-12-15T21:32:45.381Z,5.14
2023-12-15T21:33:45.518Z,5.14
2023-12-15T21:34:45.453Z,5.14
2023-12-15T21:35:51.066Z,5.12
2023-12-15T21:36:45.704Z,5.10
2023-12-15T21:37:45.718Z,5.10
2023-12-15T21:38:45.795Z,5.10
2023-12-15T21:39:45.915Z,5.10
2023-12-15T21:40:45.986Z,5.12
2023-12-15T21:41:46.104Z,5.10
2023-12-15T21:42:46.168Z,5.12
2023-12-15T21:43:46.276Z,5.12
2023-12-15T21:44:46.314Z,5.12
2023-12-15T21:45:46.422Z,5.13
2023-12-15T21:46:46.503Z,5.12
2023-12-15T21:47:46.613Z,5.12
2023-12-15T21:48:46.851Z,5.10
2023-12-15T21:49:46.739Z,5.12
2023-12-15T21:50:46.777Z,5.12
2023-12-15T21:51:46.887Z,5.10
2023-12-15T21:52:46.944Z,5.12
2023-12-15T21:53:47.010Z,5.09
2023-12-15T21:54:47.065Z,5.10
2023-12-15T21:55:47.154Z,5.07
2023-12-15T21:56:47.278Z,5.05
2023-12-15T21:57:47.356Z,5.07
2023-12-15T21:58:47.416Z,5.09
2023-12-15T21:59:47.501Z,5.07
2023-12-15T22:00:47.644Z,5.07
2023-12-15T22:01:47.789Z,5.09
2023-12-15T22:02:47.783Z,5.09
2023-12-15T22:03:48.046Z,5.10
2023-12-15T22:04:47.979Z,5.10
2023-12-15T22:05:48.071Z,5.10
2023-12-15T22:06:48.178Z,5.12
2023-12-15T22:07:50.413Z,5.10
2023-12-15T22:08:48.242Z,5.12
2023-12-15T22:09:48.373Z,5.12
2023-12-15T22:10:48.430Z,5.12
2023-12-15T22:11:48.537Z,5.10
2023-12-15T22:12:48.614Z,5.10
2023-12-15T22:13:48.691Z,5.12
2023-12-15T22:14:48.764Z,5.12
2023-12-15T22:15:48.946Z,5.12
2023-12-15T22:16:48.957Z,5.12
2023-12-15T22:17:49.074Z,5.12
2023-12-15T22:18:49.202Z,5.12
2023-12-15T22:19:49.223Z,5.12
2023-12-15T22:20:49.247Z,5.12
2023-12-15T22:21:49.370Z,5.12
2023-12-15T22:22:49.436Z,5.13
2023-12-15T22:23:49.505Z,5.13
2023-12-15T22:24:49.567Z,5.14
2023-12-15T22:25:49.603Z,5.16
2023-12-15T22:26:49.738Z,5.16
2023-12-15T22:27:49.793Z,5.16
2023-12-15T22:28:49.818Z,5.14
2023-12-15T22:29:49.898Z,5.14
2023-12-15T22:30:50.046Z,5.13
2023-12-15T22:31:50.302Z,5.13
2023-12-15T22:32:50.194Z,5.12
2023-12-15T22:33:50.336Z,5.10
2023-12-15T22:34:50.379Z,5.10
2023-12-15T22:35:50.435Z,5.09
2023-12-15T22:36:50.620Z,5.07
2023-12-15T22:37:50.577Z,5.05
2023-12-15T22:38:50.658Z,5.02
2023-12-15T22:39:50.748Z,4.99
2023-12-15T22:40:50.829Z,4.98
2023-12-15T22:41:50.954Z,4.96
2023-12-15T22:42:51.012Z,4.96
2023-12-15T22:43:51.072Z,4.96
2023-12-15T22:44:51.159Z,4.95
2023-12-15T22:45:51.259Z,4.98
2023-12-15T22:46:51.324Z,4.96
2023-12-15T22:47:51.380Z,4.96
2023-12-15T22:48:51.708Z,4.99
2023-12-15T22:49:51.729Z,4.99
2023-12-15T22:50:51.602Z,4.98
2023-12-15T22:51:51.772Z,4.99
2023-12-15T22:52:51.731Z,4.98
2023-12-15T22:53:51.842Z,5.01
2023-12-15T22:54:51.955Z,5.01
2023-12-15T22:55:52.017Z,4.99
2023-12-15T22:56:52.146Z,4.99
2023-12-15T22:57:52.215Z,4.99
2023-12-15T22:58:52.267Z,5.01
2023-12-15T22:59:52.375Z,4.98
2023-12-15T23:00:52.474Z,4.99
2023-12-15T23:01:52.610Z,4.98
2023-12-15T23:02:52.605Z,4.98
2023-12-15T23:03:52.769Z,4.96
2023-12-15T23:04:52.813Z,4.96
2023-12-15T23:05:52.868Z,4.95
2023-12-15T23:06:53.020Z,4.95
2023-12-15T23:07:53.064Z,4.95
2023-12-15T23:08:53.088Z,4.95
2023-12-15T23:09:53.207Z,4.95
2023-12-15T23:10:53.290Z,4.96
2023-12-15T23:11:53.413Z,4.95
2023-12-15T23:12:53.544Z,4.95
2023-12-15T23:13:53.529Z,4.96
2023-12-15T23:14:53.640Z,4.96
2023-12-15T23:15:53.763Z,4.98
2023-12-15T23:16:53.846Z,4.98
2023-12-15T23:17:53.911Z,4.96
2023-12-15T23:18:54.082Z,4.98
2023-12-15T23:19:54.081Z,4.96
2023-12-15T23:20:54.084Z,4.96
2023-12-15T23:21:54.204Z,4.98
2023-12-15T23:22:54.228Z,4.98
2023-12-15T23:23:54.315Z,4.98
2023-12-15T23:24:55.330Z,4.98
2023-12-15T23:25:54.471Z,4.99
2023-12-15T23:26:54.583Z,5.01
2023-12-15T23:27:54.693Z,5.02
2023-12-15T23:28:54.817Z,5.02
2023-12-15T23:29:54.819Z,5.05
2023-12-15T23:30:55.014Z,5.04
2023-12-15T23:31:55.048Z,5.04
2023-12-15T23:32:55.121Z,5.02
2023-12-15T23:33:55.280Z,5.04
2023-12-15T23:34:55.365Z,5.04
2023-12-15T23:35:55.341Z,5.04
2023-12-15T23:36:55.476Z,5.04
2023-12-15T23:37:55.519Z,5.02
2023-12-15T23:38:55.629Z,5.01
2023-12-15T23:39:55.757Z,5.02
2023-12-15T23:40:55.801Z,5.01
2023-12-15T23:41:55.960Z,5.01
2023-12-15T23:42:56.004Z,5.02
2023-12-15T23:43:56.009Z,5.01
2023-12-15T23:44:56.084Z,4.99
2023-12-15T23:45:56.169Z,4.98
2023-12-15T23:46:56.287Z,4.96
2023-12-15T23:47:56.430Z,4.95
2023-12-15T23:48:56.530Z,4.94
2023-12-15T23:50:56.537Z,4.94
2023-12-15T23:51:56.691Z,4.95
2023-12-15T23:52:56.730Z,4.95
2023-12-15T23:53:56.802Z,4.94
2023-12-15T23:54:57.212Z,4.94
2023-12-15T23:55:56.950Z,4.95
2023-12-15T23:56:57.053Z,4.91
2023-12-15T23:57:57.151Z,4.91
2023-12-15T23:58:57.183Z,4.89
2023-12-15T23:59:57.237Z,4.89
